createdAt,value
2022-12-12T00:05:02.757Z,-0.94
2022-12-12T00:10:06.782Z,-0.91
2022-12-12T00:15:11.358Z,-0.89
2022-12-12T00:20:15.045Z,-0.85
2022-12-12T00:25:18.455Z,-0.90
2022-12-12T00:30:22.074Z,-0.91
2022-12-12T00:35:26.002Z,-0.89
2022-12-12T00:40:29.310Z,-0.91
2022-12-12T00:45:32.723Z,-0.92
2022-12-12T00:50:36.958Z,-0.92
2022-12-12T00:55:40.473Z,-0.89
2022-12-12T01:00:44.092Z,-0.84
2022-12-12T01:05:47.914Z,-0.81
2022-12-12T01:10:51.224Z,-0.79
2022-12-12T01:15:55.144Z,-0.74
2022-12-12T01:20:58.559Z,-0.68
2022-12-12T01:26:07.115Z,-0.63
2022-12-12T01:31:11.087Z,-0.52
2022-12-12T01:36:16.882Z,-0.41
2022-12-12T01:41:21.224Z,-0.34
2022-12-12T01:46:24.367Z,-0.28
2022-12-12T01:51:30.307Z,-0.24
2022-12-12T01:56:35.051Z,-0.19
2022-12-12T02:01:39.730Z,-0.15
2022-12-12T02:06:44.227Z,-0.07
2022-12-12T02:11:50.509Z,-0.04
2022-12-12T02:17:00.885Z,-0.01
2022-12-12T02:22:09.316Z,-0.00
2022-12-12T02:27:35.978Z,0.00
2022-12-12T02:33:20.967Z,0.02
2022-12-12T02:38:50.903Z,0.02
2022-12-12T02:44:20.217Z,0.03
2022-12-12T02:49:32.132Z,0.10
2022-12-12T02:54:35.745Z,0.13
2022-12-12T02:59:42.442Z,0.16
2022-12-12T03:05:16.879Z,0.14
2022-12-12T03:10:51.831Z,0.17
2022-12-12T03:16:28.680Z,0.21
2022-12-12T03:21:37.977Z,0.26
2022-12-12T03:27:05.149Z,0.28
2022-12-12T03:32:15.660Z,0.30
2022-12-12T03:37:31.845Z,0.32
2022-12-12T03:42:47.746Z,0.36
2022-12-12T03:47:56.878Z,0.40
2022-12-12T03:53:09.727Z,0.46
2022-12-12T03:58:30.958Z,0.50
2022-12-12T04:03:56.904Z,0.54
2022-12-12T04:09:20.998Z,0.61
2022-12-12T04:14:33.422Z,0.66
2022-12-12T04:20:06.680Z,0.71
2022-12-12T04:25:32.782Z,0.76
2022-12-12T04:30:37.733Z,0.77
2022-12-12T04:35:49.641Z,0.80
2022-12-12T04:40:59.812Z,0.83
2022-12-12T04:46:24.938Z,0.82
2022-12-12T04:51:44.736Z,0.86
2022-12-12T04:56:54.084Z,0.86
2022-12-12T05:02:15.951Z,0.80
2022-12-12T05:07:29.586Z,0.75
2022-12-12T05:12:41.216Z,0.74
2022-12-12T05:18:01.806Z,0.72
2022-12-12T05:23:05.216Z,0.72
2022-12-12T05:28:08.629Z,0.71
2022-12-12T05:33:13.374Z,0.71
2022-12-12T05:38:16.789Z,0.73
2022-12-12T05:43:20.136Z,0.74
2022-12-12T05:48:24.604Z,0.74
2022-12-12T05:53:28.870Z,0.74
2022-12-12T05:58:32.485Z,0.75
2022-12-12T06:03:35.986Z,0.82
2022-12-12T06:08:39.710Z,0.81
2022-12-12T06:13:43.441Z,0.82
2022-12-12T06:18:54.925Z,0.84
2022-12-12T06:23:58.283Z,0.83
2022-12-12T06:29:03.304Z,0.85
2022-12-12T06:34:06.719Z,0.83
2022-12-12T06:39:10.448Z,0.84
2022-12-12T06:44:13.852Z,0.88
2022-12-12T06:49:17.161Z,0.89
2022-12-12T06:54:20.473Z,0.89
2022-12-12T06:59:23.991Z,0.89
2022-12-12T07:04:27.400Z,0.89
2022-12-12T07:09:30.925Z,0.91
2022-12-12T07:14:34.329Z,0.90
2022-12-12T07:19:37.843Z,0.89
2022-12-12T07:24:41.154Z,0.91
2022-12-12T07:29:45.084Z,0.92
2022-12-12T07:34:48.395Z,0.93
2022-12-12T07:39:51.707Z,0.95
2022-12-12T07:44:55.117Z,0.99
2022-12-12T07:49:58.428Z,1.03
2022-12-12T07:55:02.863Z,1.06
2022-12-12T08:00:08.680Z,1.06
2022-12-12T08:05:12.279Z,1.08
2022-12-12T08:10:16.070Z,1.09
2022-12-12T08:15:19.287Z,1.11
2022-12-12T08:20:23.237Z,1.22
2022-12-12T08:25:26.514Z,1.30
2022-12-12T08:30:29.930Z,1.44
2022-12-12T08:35:33.174Z,1.57
2022-12-12T08:40:36.656Z,1.69
2022-12-12T08:45:40.782Z,1.80
2022-12-12T08:50:44.093Z,1.95
2022-12-12T08:55:47.608Z,2.03
2022-12-12T09:00:51.122Z,2.04
2022-12-12T09:05:54.637Z,2.09
2022-12-12T09:10:58.262Z,2.06
2022-12-12T09:16:01.834Z,2.06
2022-12-12T09:21:05.700Z,2.09
2022-12-12T09:26:10.273Z,2.14
2022-12-12T09:31:14.005Z,2.11
2022-12-12T09:36:17.573Z,2.03
2022-12-12T09:41:27.615Z,1.97
2022-12-12T09:46:40.068Z,1.84
2022-12-12T09:51:48.295Z,1.72
2022-12-12T09:57:04.203Z,1.68
2022-12-12T10:02:52.258Z,1.71
2022-12-12T10:08:20.017Z,1.77
2022-12-12T10:13:31.341Z,1.79
2022-12-12T10:18:43.767Z,1.82
2022-12-12T10:23:56.600Z,1.81
2022-12-12T10:29:15.275Z,1.79
2022-12-12T10:34:24.214Z,1.81
2022-12-12T10:39:33.566Z,1.78
2022-12-12T10:45:07.705Z,1.74
2022-12-12T10:50:13.411Z,1.69
2022-12-12T10:55:25.598Z,1.73
2022-12-12T11:00:40.618Z,1.79
2022-12-12T11:05:45.414Z,1.78
2022-12-12T11:11:05.828Z,1.73
2022-12-12T11:16:15.754Z,1.74
2022-12-12T11:21:20.947Z,1.86
2022-12-12T11:26:27.054Z,1.90
2022-12-12T11:31:34.568Z,1.84
2022-12-12T11:36:40.970Z,1.81
2022-12-12T11:42:05.522Z,1.79
2022-12-12T11:47:29.933Z,1.76
2022-12-12T11:52:33.853Z,1.78
2022-12-12T11:58:03.909Z,1.75
2022-12-12T12:03:23.006Z,1.69
2022-12-12T12:08:44.405Z,1.63
2022-12-12T12:14:03.077Z,1.60
2022-12-12T12:19:26.868Z,1.68
2022-12-12T12:24:48.817Z,1.61
2022-12-12T12:29:54.789Z,1.61
2022-12-12T12:35:07.522Z,1.57
2022-12-12T12:40:14.110Z,1.58
2022-12-12T12:45:26.839Z,1.55
2022-12-12T12:50:37.420Z,1.48
2022-12-12T12:55:49.743Z,1.41
2022-12-12T13:01:11.906Z,1.29
2022-12-12T13:06:23.601Z,1.19
2022-12-12T13:11:33.568Z,1.12
2022-12-12T13:16:36.881Z,1.09
2022-12-12T13:21:51.046Z,1.07
2022-12-12T13:27:15.452Z,1.07
2022-12-12T13:32:27.771Z,0.99
2022-12-12T13:37:36.659Z,0.93
2022-12-12T13:42:53.189Z,0.90
2022-12-12T13:47:56.446Z,0.88
2022-12-12T13:53:08.868Z,0.83
2022-12-12T13:58:32.145Z,0.79
2022-12-12T14:03:35.663Z,0.76
2022-12-12T14:08:48.722Z,0.72
2022-12-12T14:14:02.044Z,0.67
2022-12-12T14:19:23.993Z,0.64
2022-12-12T14:24:33.653Z,0.61
2022-12-12T14:29:42.947Z,0.60
2022-12-12T14:34:55.433Z,0.59
2022-12-12T14:40:04.781Z,0.54
2022-12-12T14:45:31.438Z,0.56
2022-12-12T14:50:35.161Z,0.56
2022-12-12T14:55:51.474Z,0.54
2022-12-12T15:00:58.492Z,0.54
2022-12-12T15:06:21.238Z,0.53
2022-12-12T15:11:30.898Z,0.53
2022-12-12T15:16:48.285Z,0.52
2022-12-12T15:21:51.960Z,0.51
2022-12-12T15:26:59.673Z,0.49
2022-12-12T15:32:07.323Z,0.48
2022-12-12T15:37:26.437Z,0.49
2022-12-12T15:42:30.807Z,0.46
2022-12-12T15:47:34.213Z,0.44
2022-12-12T15:52:37.733Z,0.43
2022-12-12T15:57:50.264Z,0.42
2022-12-12T16:03:16.305Z,0.40
2022-12-12T16:08:32.025Z,0.41
2022-12-12T16:13:59.686Z,0.38
2022-12-12T16:19:05.148Z,0.38
2022-12-12T16:24:20.109Z,0.35
2022-12-12T16:29:23.951Z,0.33
2022-12-12T16:34:27.467Z,0.32
2022-12-12T16:39:31.389Z,0.31
2022-12-12T16:44:34.702Z,0.31
2022-12-12T16:49:38.733Z,0.32
2022-12-12T16:54:46.921Z,0.35
2022-12-12T16:59:55.487Z,0.34
2022-12-12T17:05:00.391Z,0.32
2022-12-12T17:10:04.158Z,0.27
2022-12-12T17:15:08.490Z,0.25
2022-12-12T17:20:12.402Z,0.20
2022-12-12T17:25:20.710Z,0.17
2022-12-12T17:30:24.772Z,0.17
2022-12-12T17:35:28.800Z,0.18
2022-12-12T17:40:32.137Z,0.18
2022-12-12T17:45:35.614Z,0.22
2022-12-12T17:50:41.842Z,0.24
2022-12-12T17:55:51.531Z,0.25
2022-12-12T18:00:58.920Z,0.25
2022-12-12T18:06:04.535Z,0.25
2022-12-12T18:11:10.041Z,0.18
2022-12-12T18:16:13.604Z,0.16
2022-12-12T18:21:51.310Z,0.16
2022-12-12T18:26:44.647Z,0.17
2022-12-12T18:31:48.063Z,0.16
2022-12-12T18:36:51.537Z,0.21
2022-12-12T18:41:55.562Z,0.19
2022-12-12T18:46:58.772Z,0.17
2022-12-12T18:52:02.183Z,0.16
2022-12-12T18:57:05.599Z,0.14
2022-12-12T19:02:12.817Z,0.21
2022-12-12T19:07:18.593Z,0.24
2022-12-12T19:12:21.779Z,0.23
2022-12-12T19:17:26.763Z,0.24
2022-12-12T19:22:46.721Z,0.25
2022-12-12T19:27:50.753Z,0.25
2022-12-12T19:32:54.781Z,0.20
2022-12-12T19:37:58.705Z,0.18
2022-12-12T19:43:03.589Z,0.16
2022-12-12T19:48:07.812Z,0.12
2022-12-12T19:53:12.428Z,0.11
2022-12-12T19:58:15.738Z,0.07
2022-12-12T20:03:18.948Z,0.01
2022-12-12T20:08:22.506Z,-0.01
2022-12-12T20:13:25.877Z,-0.16
2022-12-12T20:18:30.012Z,-0.19
2022-12-12T20:23:41.187Z,-0.23
2022-12-12T20:28:49.221Z,-0.26
2022-12-12T20:33:55.948Z,-0.31
2022-12-12T20:39:01.677Z,-0.35
2022-12-12T20:44:06.620Z,-0.43
2022-12-12T20:49:13.225Z,-0.51
2022-12-12T20:54:17.551Z,-0.62
2022-12-12T20:59:20.859Z,-0.75
2022-12-12T21:04:24.492Z,-0.83
2022-12-12T21:09:28.219Z,-0.88
2022-12-12T21:14:33.351Z,-0.97
2022-12-12T21:19:36.765Z,-0.97
2022-12-12T21:24:40.076Z,-0.99
2022-12-12T21:29:43.489Z,-0.98
2022-12-12T21:34:46.799Z,-1.11
2022-12-12T21:39:52.692Z,-1.21
2022-12-12T21:44:55.980Z,-1.26
2022-12-12T21:49:59.395Z,-1.31
2022-12-12T21:55:03.217Z,-1.33
2022-12-12T22:00:07.448Z,-1.34
2022-12-12T22:05:10.824Z,-1.40
2022-12-12T22:10:14.276Z,-1.42
2022-12-12T22:15:17.794Z,-1.41
2022-12-12T22:20:21.410Z,-1.47
2022-12-12T22:25:24.823Z,-1.51
2022-12-12T22:30:28.132Z,-1.58
2022-12-12T22:35:31.546Z,-1.64
2022-12-12T22:40:34.960Z,-1.73
2022-12-12T22:45:38.475Z,-1.77
2022-12-12T22:50:41.785Z,-1.77
2022-12-12T22:55:45.197Z,-1.86
2022-12-12T23:00:49.023Z,-1.93
2022-12-12T23:05:52.365Z,-1.92
2022-12-12T23:10:55.746Z,-2.00
2022-12-12T23:15:59.177Z,-2.01
2022-12-12T23:21:02.985Z,-2.05
2022-12-12T23:26:10.410Z,-2.05
2022-12-12T23:31:17.576Z,-2.09
2022-12-12T23:36:21.751Z,-2.08
2022-12-12T23:41:25.747Z,-2.11
2022-12-12T23:46:29.284Z,-2.07
2022-12-12T23:51:59.607Z,-2.01
2022-12-12T23:57:04.147Z,-2.03
